Belgrade, Nebraska
Current Conditions -  °F | °C
As of 3:55 AM on Friday 31 Oct 2014 (Local Time) from KBVN Reporting Station
Overcast Overcast  
Wind Chill: 24°   Ceiling: 2400
Heat Index: 32°   Visibility: 10mi
Dew Point: 23°   Wind: 10mph
Humidity: 69%   Direction: 10°N
Pressure: 30.5"   Gusts: NA
Location:  41.47°N, 98.07°W
Report Text: KBVN 310855Z AUTO 01009KT 10SM OVC024 00/M05 A3050 RMK AO2 T00011050
Loading
Personal Weather Stations






























Interactive Weather Map
Tropical Storm Tracking
New forecast layout! Learn more

10-Day Weather Forecast

Advertisements
Track Severe Weather on mobile